sensor_id;sensor_type;location;lat;lon;timestamp;pressure;altitude;pressure_sealevel;temperature;humidity
33496;BME280;19836;55.812;37.560;2023-11-21T02:21:19;99162.41;;;-5.26;57.43
33496;BME280;19836;55.812;37.560;2023-11-21T02:47:17;99165.69;;;-5.34;57.36
33496;BME280;19836;55.812;37.560;2023-11-21T02:49:46;99171.69;;;-5.38;56.73
33496;BME280;19836;55.812;37.560;2023-11-21T03:01:49;99178.69;;;-5.37;56.65
33496;BME280;19836;55.812;37.560;2023-11-21T03:04:19;99183.00;;;-5.38;56.99
33496;BME280;19836;55.812;37.560;2023-11-21T03:06:47;99186.47;;;-5.38;56.52
33496;BME280;19836;55.812;37.560;2023-11-21T03:09:15;99179.34;;;-5.46;56.68
33496;BME280;19836;55.812;37.560;2023-11-21T03:11:42;99182.69;;;-5.51;56.66
33496;BME280;19836;55.812;37.560;2023-11-21T03:39:59;99182.69;;;-5.51;57.18
33496;BME280;19836;55.812;37.560;2023-11-21T03:42:34;99194.03;;;-5.49;57.56
33496;BME280;19836;55.812;37.560;2023-11-21T03:45:01;99200.97;;;-5.51;57.66
33496;BME280;19836;55.812;37.560;2023-11-21T03:47:33;99212.31;;;-5.49;57.48
33496;BME280;19836;55.812;37.560;2023-11-21T03:50:02;99206.38;;;-5.43;57.63
33496;BME280;19836;55.812;37.560;2023-11-21T03:52:30;99200.38;;;-5.38;57.15
33496;BME280;19836;55.812;37.560;2023-11-21T04:12:29;99193.44;;;-5.38;57.10
33496;BME280;19836;55.812;37.560;2023-11-21T04:16:32;99200.38;;;-5.38;57.43
33496;BME280;19836;55.812;37.560;2023-11-21T05:56:08;99249.53;;;-5.21;57.86
33496;BME280;19836;55.812;37.560;2023-11-21T05:58:44;99251.19;;;-5.24;58.92
33496;BME280;19836;55.812;37.560;2023-11-21T06:04:34;99252.94;;;-5.23;58.54
33496;BME280;19836;55.812;37.560;2023-11-21T06:07:00;99255.63;;;-5.20;58.74
33496;BME280;19836;55.812;37.560;2023-11-21T06:35:02;99273.81;;;-4.88;59.06
33496;BME280;19836;55.812;37.560;2023-11-21T06:42:01;99268.41;;;-4.95;58.43
33496;BME280;19836;55.812;37.560;2023-11-21T06:44:56;99274.38;;;-5.01;59.03
33496;BME280;19836;55.812;37.560;2023-11-21T06:47:27;99270.81;;;-5.04;58.43
33496;BME280;19836;55.812;37.560;2023-11-21T06:50:09;99276.97;;;-5.01;59.22
33496;BME280;19836;55.812;37.560;2023-11-21T06:52:35;99286.75;;;-4.93;58.80
33496;BME280;19836;55.812;37.560;2023-11-21T06:55:01;99287.63;;;-4.92;58.83
33496;BME280;19836;55.812;37.560;2023-11-21T06:57:34;99290.28;;;-4.90;58.80
33496;BME280;19836;55.812;37.560;2023-11-21T07:00:00;99281.56;;;-4.91;59.29
33496;BME280;19836;55.812;37.560;2023-11-21T07:02:27;99281.59;;;-4.89;58.79
33496;BME280;19836;55.812;37.560;2023-11-21T07:04:54;99275.56;;;-4.87;59.25
33496;BME280;19836;55.812;37.560;2023-11-21T07:07:20;99273.81;;;-4.88;58.78
33496;BME280;19836;55.812;37.560;2023-11-21T07:09:49;99273.00;;;-4.85;58.71
33496;BME280;19836;55.812;37.560;2023-11-21T07:12:15;99279.22;;;-4.80;58.74
33496;BME280;19836;55.812;37.560;2023-11-21T07:14:41;99277.56;;;-4.75;58.82
33496;BME280;19836;55.812;37.560;2023-11-21T16:14:45;99503.13;;;-5.38;60.70
33496;BME280;19836;55.812;37.560;2023-11-21T17:06:42;99524.97;;;-5.64;61.55
33496;BME280;19836;55.812;37.560;2023-11-21T17:24:03;99502.28;;;-5.67;61.70
33496;BME280;19836;55.812;37.560;2023-11-21T17:45:52;99513.22;;;-5.79;61.73
33496;BME280;19836;55.812;37.560;2023-11-21T17:52:12;99513.03;;;-5.85;61.46
33496;BME280;19836;55.812;37.560;2023-11-21T19:58:35;99559.25;;;-6.61;63.37
33496;BME280;19836;55.812;37.560;2023-11-21T20:01:02;99559.88;;;-6.68;63.20
33496;BME280;19836;55.812;37.560;2023-11-21T20:03:32;99552.94;;;-6.67;63.56
33496;BME280;19836;55.812;37.560;2023-11-21T20:06:02;99557.38;;;-6.65;62.99
33496;BME280;19836;55.812;37.560;2023-11-21T20:08:28;99558.34;;;-6.61;63.62
33496;BME280;19836;55.812;37.560;2023-11-21T20:11:01;99553.94;;;-6.64;63.57
33496;BME280;19836;55.812;37.560;2023-11-21T20:13:27;99550.28;;;-6.69;62.98
33496;BME280;19836;55.812;37.560;2023-11-21T20:15:53;99558.03;;;-6.70;63.13
33496;BME280;19836;55.812;37.560;2023-11-21T20:18:19;99554.56;;;-6.71;63.70
33496;BME280;19836;55.812;37.560;2023-11-21T20:20:46;99562.47;;;-6.68;63.47
33496;BME280;19836;55.812;37.560;2023-11-21T20:23:12;99571.25;;;-6.66;63.73
33496;BME280;19836;55.812;37.560;2023-11-21T20:25:41;99566.03;;;-6.66;63.92
33496;BME280;19836;55.812;37.560;2023-11-21T20:28:07;99568.63;;;-6.66;63.48
33496;BME280;19836;55.812;37.560;2023-11-21T20:30:34;99572.94;;;-6.66;63.57
33496;BME280;19836;55.812;37.560;2023-11-21T20:33:02;99573.72;;;-6.69;63.75
33496;BME280;19836;55.812;37.560;2023-11-21T20:35:58;99571.97;;;-6.70;63.64
33496;BME280;19836;55.812;37.560;2023-11-21T20:38:25;99570.06;;;-6.74;63.79
33496;BME280;19836;55.812;37.560;2023-11-21T20:40:56;99572.69;;;-6.74;63.67
33496;BME280;19836;55.812;37.560;2023-11-21T20:43:24;99568.44;;;-6.72;63.49
33496;BME280;19836;55.812;37.560;2023-11-21T20:45:53;99575.50;;;-6.68;64.27
33496;BME280;19836;55.812;37.560;2023-11-21T20:48:21;99578.94;;;-6.69;63.83
33496;BME280;19836;55.812;37.560;2023-11-21T20:53:32;99583.16;;;-6.72;63.86
33496;BME280;19836;55.812;37.560;2023-11-21T20:56:10;99588.31;;;-6.74;63.79
33496;BME280;19836;55.812;37.560;2023-11-21T20:59:01;99584.06;;;-6.72;63.98
33496;BME280;19836;55.812;37.560;2023-11-21T21:01:40;99577.16;;;-6.70;63.76
33496;BME280;19836;55.812;37.560;2023-11-21T21:04:07;99581.59;;;-6.67;63.55
33496;BME280;19836;55.812;37.560;2023-11-21T21:06:33;99580.69;;;-6.68;63.92
33496;BME280;19836;55.812;37.560;2023-11-21T21:08:59;99582.38;;;-6.70;64.26
33496;BME280;19836;55.812;37.560;2023-11-21T21:11:27;99586.69;;;-6.70;64.19
33496;BME280;19836;55.812;37.560;2023-11-21T21:13:58;99592.78;;;-6.70;63.77
33496;BME280;19836;55.812;37.560;2023-11-21T21:16:24;99589.34;;;-6.69;64.11
33496;BME280;19836;55.812;37.560;2023-11-21T21:18:55;99595.41;;;-6.70;64.17
33496;BME280;19836;55.812;37.560;2023-11-21T21:21:21;99600.66;;;-6.68;64.07
33496;BME280;19836;55.812;37.560;2023-11-21T21:23:49;99591.91;;;-6.70;64.14
33496;BME280;19836;55.812;37.560;2023-11-21T21:26:16;99595.28;;;-6.73;64.19
33496;BME280;19836;55.812;37.560;2023-11-21T21:28:43;99591.03;;;-6.71;64.23
33496;BME280;19836;55.812;37.560;2023-11-21T21:31:09;99597.28;;;-6.66;64.65
33496;BME280;19836;55.812;37.560;2023-11-21T21:33:35;99597.22;;;-6.67;64.59
33496;BME280;19836;55.812;37.560;2023-11-21T21:36:01;99590.31;;;-6.67;64.35
33496;BME280;19836;55.812;37.560;2023-11-21T21:38:27;99591.22;;;-6.65;64.33
33496;BME280;19836;55.812;37.560;2023-11-21T21:40:56;99594.69;;;-6.66;64.54
33496;BME280;19836;55.812;37.560;2023-11-21T21:43:25;99597.28;;;-6.66;64.50
33496;BME280;19836;55.812;37.560;2023-11-21T21:45:52;99594.81;;;-6.61;64.43
33496;BME280;19836;55.812;37.560;2023-11-21T21:48:19;99596.56;;;-6.62;64.08
33496;BME280;19836;55.812;37.560;2023-11-21T21:50:46;99591.22;;;-6.65;64.46
33496;BME280;19836;55.812;37.560;2023-11-21T21:53:12;99592.06;;;-6.66;64.17
33496;BME280;19836;55.812;37.560;2023-11-21T21:55:39;99588.63;;;-6.65;64.26
33496;BME280;19836;55.812;37.560;2023-11-21T21:58:06;99589.53;;;-6.64;64.13
33496;BME280;19836;55.812;37.560;2023-11-21T22:00:33;99587.78;;;-6.64;64.61
33496;BME280;19836;55.812;37.560;2023-11-21T22:03:00;99580.03;;;-6.62;64.73
33496;BME280;19836;55.812;37.560;2023-11-21T22:05:27;99581.75;;;-6.63;64.70
33496;BME280;19836;55.812;37.560;2023-11-21T22:07:56;99575.66;;;-6.63;64.51
33496;BME280;19836;55.812;37.560;2023-11-21T22:10:22;99577.38;;;-6.64;64.43
33496;BME280;19836;55.812;37.560;2023-11-21T22:12:50;99582.59;;;-6.64;64.61
33496;BME280;19836;55.812;37.560;2023-11-21T22:15:16;99576.53;;;-6.63;64.82
33496;BME280;19836;55.812;37.560;2023-11-21T22:17:43;99589.78;;;-6.57;64.79
33496;BME280;19836;55.812;37.560;2023-11-21T22:20:10;99582.06;;;-6.54;64.78
33496;BME280;19836;55.812;37.560;2023-11-21T22:22:36;99581.28;;;-6.51;64.76
33496;BME280;19836;55.812;37.560;2023-11-21T22:25:03;99583.88;;;-6.51;64.83
33496;BME280;19836;55.812;37.560;2023-11-21T22:27:30;99594.22;;;-6.54;64.51
33496;BME280;19836;55.812;37.560;2023-11-21T22:29:56;99588.06;;;-6.56;64.78
33496;BME280;19836;55.812;37.560;2023-11-21T22:32:22;99578.41;;;-6.59;65.04
33496;BME280;19836;55.812;37.560;2023-11-21T22:34:48;99589.78;;;-6.57;64.70
33496;BME280;19836;55.812;37.560;2023-11-21T22:37:14;99585.56;;;-6.53;64.70
33496;BME280;19836;55.812;37.560;2023-11-21T22:39:40;99592.69;;;-6.48;65.11
33496;BME280;19836;55.812;37.560;2023-11-21T22:42:07;99595.50;;;-6.42;65.00
33496;BME280;19836;55.812;37.560;2023-11-21T22:44:33;99600.72;;;-6.42;64.84
33496;BME280;19836;55.812;37.560;2023-11-21T22:46:59;99604.25;;;-6.40;64.52
33496;BME280;19836;55.812;37.560;2023-11-21T22:49:27;99601.66;;;-6.40;64.95
33496;BME280;19836;55.812;37.560;2023-11-21T22:51:57;99605.94;;;-6.42;64.71
33496;BME280;19836;55.812;37.560;2023-11-21T22:54:22;99602.50;;;-6.41;64.86
33496;BME280;19836;55.812;37.560;2023-11-21T22:56:49;99600.75;;;-6.40;65.00
33496;BME280;19836;55.812;37.560;2023-11-21T22:59:19;99600.88;;;-6.37;64.55
33496;BME280;19836;55.812;37.560;2023-11-21T23:01:51;99605.34;;;-6.33;64.75
33496;BME280;19836;55.812;37.560;2023-11-21T23:04:19;99614.28;;;-6.27;64.70
33496;BME280;19836;55.812;37.560;2023-11-21T23:06:46;99612.59;;;-6.25;64.42
33496;BME280;19836;55.812;37.560;2023-11-21T23:09:13;99614.34;;;-6.24;64.58
33496;BME280;19836;55.812;37.560;2023-11-21T23:11:39;99620.53;;;-6.20;64.44
33496;BME280;19836;55.812;37.560;2023-11-21T23:14:08;99620.72;;;-6.16;64.39
33496;BME280;19836;55.812;37.560;2023-11-21T23:16:34;99616.53;;;-6.11;64.66
33496;BME280;19836;55.812;37.560;2023-11-21T23:19:01;99626.31;;;-6.04;64.52
33496;BME280;19836;55.812;37.560;2023-11-21T23:21:27;99629.09;;;-5.99;64.53
33496;BME280;19836;55.812;37.560;2023-11-21T23:23:55;99622.13;;;-5.99;64.57
33496;BME280;19836;55.812;37.560;2023-11-21T23:26:36;99617.88;;;-5.97;64.64
33496;BME280;19836;55.812;37.560;2023-11-21T23:29:03;99610.09;;;-5.95;64.66
33496;BME280;19836;55.812;37.560;2023-11-21T23:31:29;99621.28;;;-5.98;64.50
33496;BME280;19836;55.812;37.560;2023-11-21T23:33:55;99624.03;;;-5.95;64.58
33496;BME280;19836;55.812;37.560;2023-11-21T23:36:21;99620.50;;;-5.95;64.37
33496;BME280;19836;55.812;37.560;2023-11-21T23:38:48;99621.53;;;-5.92;64.61
33496;BME280;19836;55.812;37.560;2023-11-21T23:41:15;99625.09;;;-5.88;64.59
33496;BME280;19836;55.812;37.560;2023-11-21T23:43:49;99614.72;;;-5.87;64.85
33496;BME280;19836;55.812;37.560;2023-11-21T23:46:15;99608.63;;;-5.87;64.58
33496;BME280;19836;55.812;37.560;2023-11-21T23:48:53;99617.34;;;-5.87;64.38
33496;BME280;19836;55.812;37.560;2023-11-21T23:51:19;99613.88;;;-5.86;64.76
33496;BME280;19836;55.812;37.560;2023-11-21T23:53:45;99616.56;;;-5.83;64.17
33496;BME280;19836;55.812;37.560;2023-11-21T23:56:12;99613.97;;;-5.83;64.36
33496;BME280;19836;55.812;37.560;2023-11-21T23:58:38;99625.34;;;-5.81;64.52
